sensor_id;sensor_type;location;lat;lon;timestamp;pressure;altitude;pressure_sealevel;temperature;humidity
44138;BME280;29800;55.942;37.314;2023-03-02T00:04:50;98697.06;;;-3.07;70.79
44138;BME280;29800;55.942;37.314;2023-03-02T00:07:24;98697.97;;;-3.00;70.43
44138;BME280;29800;55.942;37.314;2023-03-02T00:09:53;98696.59;;;-2.96;70.04
44138;BME280;29800;55.942;37.314;2023-03-02T00:12:19;98701.31;;;-2.98;69.51
44138;BME280;29800;55.942;37.314;2023-03-02T00:14:46;98703.13;;;-2.99;69.43
44138;BME280;29800;55.942;37.314;2023-03-02T00:17:11;98709.97;;;-2.96;69.08
44138;BME280;29800;55.942;37.314;2023-03-02T00:19:38;98708.31;;;-2.97;68.98
44138;BME280;29800;55.942;37.314;2023-03-02T00:22:04;98714.69;;;-2.98;68.93
44138;BME280;29800;55.942;37.314;2023-03-02T00:24:30;98721.69;;;-2.97;68.95
44138;BME280;29800;55.942;37.314;2023-03-02T00:26:56;98725.22;;;-2.97;68.86
44138;BME280;29800;55.942;37.314;2023-03-02T00:29:22;98732.59;;;-2.99;68.75
44138;BME280;29800;55.942;37.314;2023-03-02T00:31:48;98729.81;;;-3.05;68.49
44138;BME280;29800;55.942;37.314;2023-03-02T00:34:14;98718.13;;;-3.04;67.96
44138;BME280;29800;55.942;37.314;2023-03-02T00:36:41;98733.38;;;-3.20;67.82
44138;BME280;29800;55.942;37.314;2023-03-02T00:39:07;98742.97;;;-3.25;67.75
44138;BME280;29800;55.942;37.314;2023-03-02T00:41:33;98742.31;;;-3.27;67.47
44138;BME280;29800;55.942;37.314;2023-03-02T00:43:59;98739.28;;;-3.24;67.57
44138;BME280;29800;55.942;37.314;2023-03-02T00:46:25;98741.00;;;-3.32;67.41
44138;BME280;29800;55.942;37.314;2023-03-02T00:48:53;98744.25;;;-3.36;67.69
44138;BME280;29800;55.942;37.314;2023-03-02T00:51:19;98738.44;;;-3.40;67.49
44138;BME280;29800;55.942;37.314;2023-03-02T00:53:45;98726.72;;;-3.39;67.39
44138;BME280;29800;55.942;37.314;2023-03-02T00:56:12;98736.97;;;-3.42;67.41
44138;BME280;29800;55.942;37.314;2023-03-02T00:58:43;98735.47;;;-3.45;67.77
44138;BME280;29800;55.942;37.314;2023-03-02T01:01:11;98747.88;;;-3.44;67.27
44138;BME280;29800;55.942;37.314;2023-03-02T01:03:41;98747.59;;;-3.49;68.05
44138;BME280;29800;55.942;37.314;2023-03-02T01:06:14;98759.66;;;-3.53;67.80
44138;BME280;29800;55.942;37.314;2023-03-02T01:08:40;98755.22;;;-3.61;67.76
44138;BME280;29800;55.942;37.314;2023-03-02T01:11:18;98750.16;;;-3.56;68.19
44138;BME280;29800;55.942;37.314;2023-03-02T01:13:44;98750.63;;;-3.67;67.87
44138;BME280;29800;55.942;37.314;2023-03-02T01:16:11;98748.47;;;-3.72;67.52
44138;BME280;29800;55.942;37.314;2023-03-02T01:18:39;98749.03;;;-3.76;68.03
44138;BME280;29800;55.942;37.314;2023-03-02T01:21:08;98746.06;;;-3.81;68.08
44138;BME280;29800;55.942;37.314;2023-03-02T01:23:35;98732.06;;;-3.83;68.19
44138;BME280;29800;55.942;37.314;2023-03-02T01:26:01;98735.44;;;-3.90;68.89
44138;BME280;29800;55.942;37.314;2023-03-02T01:28:27;98748.00;;;-3.90;68.51
44138;BME280;29800;55.942;37.314;2023-03-02T01:30:53;98758.50;;;-3.89;68.36
44138;BME280;29800;55.942;37.314;2023-03-02T01:33:20;98761.38;;;-3.90;68.88
44138;BME280;29800;55.942;37.314;2023-03-02T01:35:46;98772.53;;;-3.86;68.76
44138;BME280;29800;55.942;37.314;2023-03-02T01:38:13;98769.66;;;-3.85;68.96
44138;BME280;29800;55.942;37.314;2023-03-02T01:40:39;98774.16;;;-3.85;68.72
44138;BME280;29800;55.942;37.314;2023-03-02T01:43:10;98763.97;;;-3.82;68.79
44138;BME280;29800;55.942;37.314;2023-03-02T01:48:28;98773.09;;;-3.76;68.20
44138;BME280;29800;55.942;37.314;2023-03-02T01:50:57;98773.09;;;-3.76;68.39
44138;BME280;29800;55.942;37.314;2023-03-02T01:53:26;98771.06;;;-3.74;68.21
44138;BME280;29800;55.942;37.314;2023-03-02T01:55:55;98773.28;;;-3.78;68.24
44138;BME280;29800;55.942;37.314;2023-03-02T01:58:21;98777.16;;;-3.80;67.77
44138;BME280;29800;55.942;37.314;2023-03-02T02:00:48;98775.47;;;-3.81;68.20
44138;BME280;29800;55.942;37.314;2023-03-02T02:03:20;98773.28;;;-3.78;67.70
44138;BME280;29800;55.942;37.314;2023-03-02T02:05:59;98789.31;;;-3.78;68.20
44138;BME280;29800;55.942;37.314;2023-03-02T02:08:30;98784.25;;;-3.73;67.49
44138;BME280;29800;55.942;37.314;2023-03-02T02:10:57;98760.34;;;-3.74;67.59
44138;BME280;29800;55.942;37.314;2023-03-02T02:13:23;98775.31;;;-3.80;67.49
44138;BME280;29800;55.942;37.314;2023-03-02T02:15:49;98769.25;;;-3.74;67.44
44138;BME280;29800;55.942;37.314;2023-03-02T02:18:16;98768.19;;;-3.73;67.62
44138;BME280;29800;55.942;37.314;2023-03-02T02:20:44;98790.44;;;-3.72;67.38
44138;BME280;29800;55.942;37.314;2023-03-02T02:29:05;98802.34;;;-3.60;67.50
44138;BME280;29800;55.942;37.314;2023-03-02T02:35:04;98796.00;;;-3.59;66.79
44138;BME280;29800;55.942;37.314;2023-03-02T02:37:46;98791.28;;;-3.57;66.56
44138;BME280;29800;55.942;37.314;2023-03-02T02:40:21;98797.66;;;-3.58;66.37
44138;BME280;29800;55.942;37.314;2023-03-02T02:42:50;98798.31;;;-3.56;65.65
44138;BME280;29800;55.942;37.314;2023-03-02T02:45:24;98789.91;;;-3.53;65.73
44138;BME280;29800;55.942;37.314;2023-03-02T02:47:52;98815.75;;;-3.60;65.14
44138;BME280;29800;55.942;37.314;2023-03-02T02:50:23;98822.59;;;-3.57;65.69
44138;BME280;29800;55.942;37.314;2023-03-02T02:52:57;98828.09;;;-3.59;65.29
44138;BME280;29800;55.942;37.314;2023-03-02T02:55:25;98824.13;;;-3.63;64.92
44138;BME280;29800;55.942;37.314;2023-03-02T02:57:55;98824.75;;;-3.61;65.89
44138;BME280;29800;55.942;37.314;2023-03-02T03:00:23;98825.63;;;-3.60;65.43
44138;BME280;29800;55.942;37.314;2023-03-02T03:02:55;98830.59;;;-3.57;64.75
44138;BME280;29800;55.942;37.314;2023-03-02T03:05:22;98831.78;;;-3.60;65.06
44138;BME280;29800;55.942;37.314;2023-03-02T03:07:48;98827.44;;;-3.61;65.28
44138;BME280;29800;55.942;37.314;2023-03-02T03:12:45;98824.41;;;-3.58;65.12
44138;BME280;29800;55.942;37.314;2023-03-02T03:15:12;98816.09;;;-3.63;64.74
44138;BME280;29800;55.942;37.314;2023-03-02T03:17:39;98813.59;;;-3.64;64.88
44138;BME280;29800;55.942;37.314;2023-03-02T03:20:06;98825.16;;;-3.64;64.83
44138;BME280;29800;55.942;37.314;2023-03-02T03:22:40;98825.78;;;-3.62;65.07
44138;BME280;29800;55.942;37.314;2023-03-02T03:25:09;98820.63;;;-3.63;64.85
44138;BME280;29800;55.942;37.314;2023-03-02T03:27:41;98806.97;;;-3.68;64.72
44138;BME280;29800;55.942;37.314;2023-03-02T03:30:11;98814.13;;;-3.69;64.48
44138;BME280;29800;55.942;37.314;2023-03-02T03:32:39;98812.50;;;-3.70;64.61
44138;BME280;29800;55.942;37.314;2023-03-02T03:35:05;98811.63;;;-3.71;64.48
44138;BME280;29800;55.942;37.314;2023-03-02T03:37:35;98811.84;;;-3.72;64.57
44138;BME280;29800;55.942;37.314;2023-03-02T03:40:01;98800.66;;;-3.76;64.44
44138;BME280;29800;55.942;37.314;2023-03-02T03:42:29;98803.34;;;-3.76;64.70
44138;BME280;29800;55.942;37.314;2023-03-02T03:44:57;98802.78;;;-3.71;64.50
44138;BME280;29800;55.942;37.314;2023-03-02T03:47:23;98806.78;;;-3.67;64.68
44138;BME280;29800;55.942;37.314;2023-03-02T03:49:50;98806.59;;;-3.65;64.12
44138;BME280;29800;55.942;37.314;2023-03-02T03:52:16;98803.44;;;-3.69;63.81
44138;BME280;29800;55.942;37.314;2023-03-02T03:54:43;98799.94;;;-3.70;64.16
44138;BME280;29800;55.942;37.314;2023-03-02T03:57:09;98815.16;;;-3.70;63.53
44138;BME280;29800;55.942;37.314;2023-03-02T03:59:37;98815.53;;;-3.73;63.95
44138;BME280;29800;55.942;37.314;2023-03-02T04:02:04;98806.50;;;-3.72;63.57
44138;BME280;29800;55.942;37.314;2023-03-02T04:04:37;98812.84;;;-3.73;63.29
44138;BME280;29800;55.942;37.314;2023-03-02T04:07:11;98816.34;;;-3.73;63.21
44138;BME280;29800;55.942;37.314;2023-03-02T04:09:38;98813.97;;;-3.67;63.23
44138;BME280;29800;55.942;37.314;2023-03-02T04:12:06;98818.50;;;-3.68;63.52
44138;BME280;29800;55.942;37.314;2023-03-02T04:14:33;98819.81;;;-3.64;63.51
44138;BME280;29800;55.942;37.314;2023-03-02T04:17:00;98816.75;;;-3.61;63.02
44138;BME280;29800;55.942;37.314;2023-03-02T04:19:31;98823.94;;;-3.61;62.93
44138;BME280;29800;55.942;37.314;2023-03-02T04:21:58;98820.16;;;-3.67;63.59
44138;BME280;29800;55.942;37.314;2023-03-02T04:24:26;98829.00;;;-3.66;63.16
44138;BME280;29800;55.942;37.314;2023-03-02T04:26:54;98829.38;;;-3.70;63.27
44138;BME280;29800;55.942;37.314;2023-03-02T04:29:21;98834.06;;;-3.72;63.85
44138;BME280;29800;55.942;37.314;2023-03-02T04:31:49;98834.88;;;-3.71;63.80
44138;BME280;29800;55.942;37.314;2023-03-02T04:34:17;98843.19;;;-3.66;63.42
44138;BME280;29800;55.942;37.314;2023-03-02T04:36:44;98853.53;;;-3.63;63.99
44138;BME280;29800;55.942;37.314;2023-03-02T04:39:14;98863.78;;;-3.66;63.87
44138;BME280;29800;55.942;37.314;2023-03-02T04:41:45;98865.56;;;-3.59;64.08
44138;BME280;29800;55.942;37.314;2023-03-02T04:44:12;98870.84;;;-3.51;63.49
44138;BME280;29800;55.942;37.314;2023-03-02T04:46:38;98871.88;;;-3.37;63.54
44138;BME280;29800;55.942;37.314;2023-03-02T04:49:04;98869.13;;;-3.28;63.44
44138;BME280;29800;55.942;37.314;2023-03-02T04:51:33;98879.56;;;-3.19;62.66
44138;BME280;29800;55.942;37.314;2023-03-02T04:54:02;98882.72;;;-3.15;63.22
44138;BME280;29800;55.942;37.314;2023-03-02T04:56:29;98886.88;;;-3.12;62.72
44138;BME280;29800;55.942;37.314;2023-03-02T04:58:56;98879.94;;;-3.07;62.87
44138;BME280;29800;55.942;37.314;2023-03-02T05:01:22;98889.28;;;-3.03;62.99
44138;BME280;29800;55.942;37.314;2023-03-02T05:03:49;98889.56;;;-2.98;62.31
44138;BME280;29800;55.942;37.314;2023-03-02T05:06:16;98889.84;;;-2.92;62.45
44138;BME280;29800;55.942;37.314;2023-03-02T05:08:43;98893.16;;;-2.90;62.02
44138;BME280;29800;55.942;37.314;2023-03-02T05:11:12;98902.88;;;-2.89;62.47
44138;BME280;29800;55.942;37.314;2023-03-02T05:13:50;98909.06;;;-2.89;62.20
44138;BME280;29800;55.942;37.314;2023-03-02T05:16:18;98902.50;;;-2.86;62.45
44138;BME280;29800;55.942;37.314;2023-03-02T05:18:44;98906.66;;;-2.84;62.38
44138;BME280;29800;55.942;37.314;2023-03-02T05:21:11;98902.25;;;-2.77;62.19
44138;BME280;29800;55.942;37.314;2023-03-02T05:23:39;98906.88;;;-2.70;61.92
44138;BME280;29800;55.942;37.314;2023-03-02T05:26:06;98910.19;;;-2.68;62.26
44138;BME280;29800;55.942;37.314;2023-03-02T05:28:32;98904.84;;;-2.68;61.69
44138;BME280;29800;55.942;37.314;2023-03-02T05:30:59;98909.38;;;-2.69;62.32
44138;BME280;29800;55.942;37.314;2023-03-02T05:33:25;98910.00;;;-2.67;62.25
44138;BME280;29800;55.942;37.314;2023-03-02T05:35:51;98905.28;;;-2.65;62.45
44138;BME280;29800;55.942;37.314;2023-03-02T05:38:17;98903.25;;;-2.63;62.30
44138;BME280;29800;55.942;37.314;2023-03-02T05:40:43;98906.78;;;-2.62;63.00
44138;BME280;29800;55.942;37.314;2023-03-02T05:43:10;98893.19;;;-2.61;62.55
44138;BME280;29800;55.942;37.314;2023-03-02T05:45:39;98892.06;;;-2.66;63.12
44138;BME280;29800;55.942;37.314;2023-03-02T05:48:06;98893.84;;;-2.59;62.83
44138;BME280;29800;55.942;37.314;2023-03-02T05:50:33;98898.53;;;-2.46;62.78
44138;BME280;29800;55.942;37.314;2023-03-02T05:52:59;98895.75;;;-2.37;62.29
44138;BME280;29800;55.942;37.314;2023-03-02T05:55:27;98902.66;;;-2.28;62.42
44138;BME280;29800;55.942;37.314;2023-03-02T05:57:54;98904.22;;;-2.19;61.81
44138;BME280;29800;55.942;37.314;2023-03-02T06:00:20;98907.16;;;-2.14;61.36
44138;BME280;29800;55.942;37.314;2023-03-02T06:02:46;98904.94;;;-2.10;61.40
44138;BME280;29800;55.942;37.314;2023-03-02T06:05:16;98916.03;;;-2.13;61.26
44138;BME280;29800;55.942;37.314;2023-03-02T06:07:43;98917.25;;;-2.16;61.68
44138;BME280;29800;55.942;37.314;2023-03-02T06:10:11;98912.78;;;-2.09;61.53
44138;BME280;29800;55.942;37.314;2023-03-02T06:12:39;98921.09;;;-2.04;61.20
44138;BME280;29800;55.942;37.314;2023-03-02T06:15:06;98907.31;;;-2.00;61.38
44138;BME280;29800;55.942;37.314;2023-03-02T06:17:32;98917.94;;;-1.92;60.91
44138;BME280;29800;55.942;37.314;2023-03-02T06:19:58;98911.81;;;-1.86;60.81
44138;BME280;29800;55.942;37.314;2023-03-02T06:22:24;98908.38;;;-1.80;60.89
44138;BME280;29800;55.942;37.314;2023-03-02T06:24:50;98915.94;;;-1.69;60.32
44138;BME280;29800;55.942;37.314;2023-03-02T06:27:16;98925.06;;;-1.63;60.03
44138;BME280;29800;55.942;37.314;2023-03-02T06:29:42;98910.06;;;-1.57;59.88
44138;BME280;29800;55.942;37.314;2023-03-02T06:32:08;98910.31;;;-1.52;60.05
44138;BME280;29800;55.942;37.314;2023-03-02T06:34:35;98906.19;;;-1.48;59.72
44138;BME280;29800;55.942;37.314;2023-03-02T06:37:01;98904.63;;;-1.42;59.42
44138;BME280;29800;55.942;37.314;2023-03-02T06:39:27;98908.03;;;-1.27;60.57
44138;BME280;29800;55.942;37.314;2023-03-02T06:41:53;98895.03;;;-1.23;59.28
44138;BME280;29800;55.942;37.314;2023-03-02T06:44:19;98903.00;;;-1.08;59.01
44138;BME280;29800;55.942;37.314;2023-03-02T06:46:45;98891.81;;;-0.84;59.20
44138;BME280;29800;55.942;37.314;2023-03-02T06:49:11;98885.22;;;-0.81;58.01
44138;BME280;29800;55.942;37.314;2023-03-02T06:51:37;98897.69;;;-0.73;57.48
44138;BME280;29800;55.942;37.314;2023-03-02T06:54:04;98891.91;;;-0.70;56.99
44138;BME280;29800;55.942;37.314;2023-03-02T06:56:32;98886.31;;;-0.69;56.93
44138;BME280;29800;55.942;37.314;2023-03-02T06:58:58;98894.00;;;-0.66;56.72
44138;BME280;29800;55.942;37.314;2023-03-02T07:01:24;98889.84;;;-0.68;56.67
44138;BME280;29800;55.942;37.314;2023-03-02T07:03:50;98893.59;;;-0.63;56.54
44138;BME280;29800;55.942;37.314;2023-03-02T07:06:17;98883.72;;;-0.56;56.73
44138;BME280;29800;55.942;37.314;2023-03-02T07:08:43;98882.44;;;-0.60;55.48
44138;BME280;29800;55.942;37.314;2023-03-02T07:11:11;98883.44;;;-0.67;55.95
44138;BME280;29800;55.942;37.314;2023-03-02T07:13:38;98888.88;;;-0.61;55.52
44138;BME280;29800;55.942;37.314;2023-03-02T07:16:06;98894.53;;;-0.49;55.45
44138;BME280;29800;55.942;37.314;2023-03-02T07:18:33;98895.53;;;-0.50;55.00
44138;BME280;29800;55.942;37.314;2023-03-02T07:20:59;98898.19;;;-0.57;54.54
44138;BME280;29800;55.942;37.314;2023-03-02T07:23:25;98891.56;;;-0.61;54.69
44138;BME280;29800;55.942;37.314;2023-03-02T07:25:51;98892.59;;;-0.62;54.62
44138;BME280;29800;55.942;37.314;2023-03-02T07:28:18;98901.91;;;-0.58;55.17
44138;BME280;29800;55.942;37.314;2023-03-02T07:30:46;98897.16;;;-0.56;54.77
44138;BME280;29800;55.942;37.314;2023-03-02T07:33:12;98889.94;;;-0.55;54.53
44138;BME280;29800;55.942;37.314;2023-03-02T07:35:38;98894.34;;;-0.41;54.05
44138;BME280;29800;55.942;37.314;2023-03-02T07:38:04;98891.63;;;-0.47;54.28
44138;BME280;29800;55.942;37.314;2023-03-02T07:40:30;98896.63;;;-0.44;54.59
44138;BME280;29800;55.942;37.314;2023-03-02T07:42:56;98894.94;;;-0.45;53.66
44138;BME280;29800;55.942;37.314;2023-03-02T07:45:22;98891.66;;;-0.41;53.63
44138;BME280;29800;55.942;37.314;2023-03-02T07:47:50;98892.47;;;-0.40;53.54
44138;BME280;29800;55.942;37.314;2023-03-02T07:50:16;98900.72;;;-0.48;53.54
44138;BME280;29800;55.942;37.314;2023-03-02T07:52:42;98895.56;;;-0.43;53.15
44138;BME280;29800;55.942;37.314;2023-03-02T07:55:09;98883.41;;;-0.39;53.65
44138;BME280;29800;55.942;37.314;2023-03-02T07:57:35;98879.69;;;-0.31;52.95
44138;BME280;29800;55.942;37.314;2023-03-02T08:00:03;98878.47;;;-0.29;53.99
44138;BME280;29800;55.942;37.314;2023-03-02T08:02:39;98874.31;;;-0.25;53.27
44138;BME280;29800;55.942;37.314;2023-03-02T08:05:05;98868.56;;;-0.22;52.83
44138;BME280;29800;55.942;37.314;2023-03-02T08:07:31;98859.88;;;-0.17;52.32
44138;BME280;29800;55.942;37.314;2023-03-02T08:09:58;98858.19;;;-0.25;52.46
44138;BME280;29800;55.942;37.314;2023-03-02T08:12:26;98852.59;;;-0.30;52.21
44138;BME280;29800;55.942;37.314;2023-03-02T08:14:53;98855.69;;;-0.33;51.93
44138;BME280;29800;55.942;37.314;2023-03-02T08:17:19;98852.75;;;-0.45;52.30
44138;BME280;29800;55.942;37.314;2023-03-02T08:19:45;98845.94;;;-0.47;52.82
44138;BME280;29800;55.942;37.314;2023-03-02T08:22:11;98858.97;;;-0.44;52.65
44138;BME280;29800;55.942;37.314;2023-03-02T08:24:37;98859.84;;;-0.30;52.64
44138;BME280;29800;55.942;37.314;2023-03-02T08:27:07;98860.69;;;-0.23;52.04
44138;BME280;29800;55.942;37.314;2023-03-02T08:29:34;98863.84;;;-0.13;51.23
44138;BME280;29800;55.942;37.314;2023-03-02T08:32:00;98860.78;;;-0.03;51.22
44138;BME280;29800;55.942;37.314;2023-03-02T08:34:26;98864.06;;;-0.01;50.82
44138;BME280;29800;55.942;37.314;2023-03-02T08:36:52;98861.56;;;-0.09;50.77
44138;BME280;29800;55.942;37.314;2023-03-02T08:39:18;98850.78;;;-0.16;49.73
44138;BME280;29800;55.942;37.314;2023-03-02T08:41:49;98855.09;;;-0.28;50.53
44138;BME280;29800;55.942;37.314;2023-03-02T08:44:15;98858.63;;;-0.28;50.30
44138;BME280;29800;55.942;37.314;2023-03-02T08:46:42;98858.66;;;-0.14;49.48
44138;BME280;29800;55.942;37.314;2023-03-02T08:49:09;98859.06;;;-0.17;49.68
44138;BME280;29800;55.942;37.314;2023-03-02T08:51:35;98853.69;;;-0.17;49.26
44138;BME280;29800;55.942;37.314;2023-03-02T08:54:01;98858.25;;;-0.18;49.91
44138;BME280;29800;55.942;37.314;2023-03-02T08:56:32;98858.00;;;-0.16;50.12
44138;BME280;29800;55.942;37.314;2023-03-02T08:59:00;98867.75;;;-0.15;50.10
44138;BME280;29800;55.942;37.314;2023-03-02T09:01:29;98855.50;;;-0.25;50.04
44138;BME280;29800;55.942;37.314;2023-03-02T09:03:57;98852.00;;;-0.25;50.36
44138;BME280;29800;55.942;37.314;2023-03-02T09:06:29;98859.91;;;-0.10;50.41
44138;BME280;29800;55.942;37.314;2023-03-02T09:08:56;98858.50;;;0.01;50.49
44138;BME280;29800;55.942;37.314;2023-03-02T09:11:22;98854.16;;;0.06;49.68
44138;BME280;29800;55.942;37.314;2023-03-02T09:13:49;98849.63;;;0.13;49.41
44138;BME280;29800;55.942;37.314;2023-03-02T09:16:17;98857.94;;;0.39;48.90
44138;BME280;29800;55.942;37.314;2023-03-02T09:18:46;98857.94;;;0.45;48.16
44138;BME280;29800;55.942;37.314;2023-03-02T09:21:12;98847.97;;;0.39;48.22
44138;BME280;29800;55.942;37.314;2023-03-02T09:23:38;98845.75;;;0.43;48.44
44138;BME280;29800;55.942;37.314;2023-03-02T09:26:05;98828.75;;;0.69;48.09
44138;BME280;29800;55.942;37.314;2023-03-02T09:28:31;98826.44;;;0.86;47.16
44138;BME280;29800;55.942;37.314;2023-03-02T09:31:00;98817.53;;;0.85;47.57
44138;BME280;29800;55.942;37.314;2023-03-02T09:33:28;98824.34;;;0.95;47.32
44138;BME280;29800;55.942;37.314;2023-03-02T09:35:54;98812.53;;;0.96;46.68
44138;BME280;29800;55.942;37.314;2023-03-02T09:38:21;98816.47;;;1.00;46.34
44138;BME280;29800;55.942;37.314;2023-03-02T09:41:11;98822.25;;;0.97;46.58
44138;BME280;29800;55.942;37.314;2023-03-02T09:46:24;98809.88;;;0.76;46.62
44138;BME280;29800;55.942;37.314;2023-03-02T09:51:30;98804.06;;;0.65;47.38
44138;BME280;29800;55.942;37.314;2023-03-02T09:56:35;98801.38;;;0.72;46.99
44138;BME280;29800;55.942;37.314;2023-03-02T09:59:22;98787.06;;;0.85;46.84
44138;BME280;29800;55.942;37.314;2023-03-02T10:04:44;98770.25;;;0.96;46.60
44138;BME280;29800;55.942;37.314;2023-03-02T10:07:32;98778.09;;;1.04;47.01
44138;BME280;29800;55.942;37.314;2023-03-02T10:10:26;98769.00;;;0.99;46.86
44138;BME280;29800;55.942;37.314;2023-03-02T10:19:11;98761.75;;;0.93;47.38
44138;BME280;29800;55.942;37.314;2023-03-02T10:24:12;98762.16;;;0.96;46.22
44138;BME280;29800;55.942;37.314;2023-03-02T10:26:45;98760.13;;;0.78;46.47
44138;BME280;29800;55.942;37.314;2023-03-02T10:29:35;98747.28;;;0.73;47.25
44138;BME280;29800;55.942;37.314;2023-03-02T10:32:22;98741.53;;;0.43;47.11
44138;BME280;29800;55.942;37.314;2023-03-02T10:34:50;98738.22;;;0.28;47.97
44138;BME280;29800;55.942;37.314;2023-03-02T10:37:22;98737.00;;;0.37;48.29
44138;BME280;29800;55.942;37.314;2023-03-02T10:39:51;98725.41;;;0.43;47.91
44138;BME280;29800;55.942;37.314;2023-03-02T10:44:55;98716.69;;;0.48;47.80
44138;BME280;29800;55.942;37.314;2023-03-02T10:47:26;98713.16;;;0.47;48.51
44138;BME280;29800;55.942;37.314;2023-03-02T10:49:55;98705.88;;;0.61;48.55
44138;BME280;29800;55.942;37.314;2023-03-02T10:52:23;98720.56;;;0.72;47.44
44138;BME280;29800;55.942;37.314;2023-03-02T10:55:02;98714.56;;;0.70;47.44
44138;BME280;29800;55.942;37.314;2023-03-02T10:57:39;98713.13;;;0.74;47.86
44138;BME280;29800;55.942;37.314;2023-03-02T11:00:16;98710.44;;;0.61;47.30
44138;BME280;29800;55.942;37.314;2023-03-02T11:02:57;98691.38;;;0.55;47.13
44138;BME280;29800;55.942;37.314;2023-03-02T11:05:33;98679.22;;;0.46;47.77
44138;BME280;29800;55.942;37.314;2023-03-02T11:08:05;98668.66;;;0.38;47.62
44138;BME280;29800;55.942;37.314;2023-03-02T11:10:35;98660.38;;;0.33;47.66
44138;BME280;29800;55.942;37.314;2023-03-02T11:13:15;98668.66;;;0.38;48.24
44138;BME280;29800;55.942;37.314;2023-03-02T11:15:49;98668.66;;;0.38;47.88
44138;BME280;29800;55.942;37.314;2023-03-02T11:20:44;98658.78;;;0.05;48.59
44138;BME280;29800;55.942;37.314;2023-03-02T11:23:13;98643.84;;;0.16;49.02
44138;BME280;29800;55.942;37.314;2023-03-02T11:25:47;98640.13;;;0.17;48.82
44138;BME280;29800;55.942;37.314;2023-03-02T11:28:42;98650.47;;;0.20;48.93
44138;BME280;29800;55.942;37.314;2023-03-02T11:31:49;98660.81;;;0.30;48.70
44138;BME280;29800;55.942;37.314;2023-03-02T11:36:48;98654.19;;;0.12;50.15
44138;BME280;29800;55.942;37.314;2023-03-02T11:39:24;98641.56;;;0.13;49.43
44138;BME280;29800;55.942;37.314;2023-03-02T11:41:52;98644.69;;;0.16;48.65
44138;BME280;29800;55.942;37.314;2023-03-02T11:44:20;98655.44;;;0.03;48.92
44138;BME280;29800;55.942;37.314;2023-03-02T11:46:49;98647.56;;;-0.05;49.27
44138;BME280;29800;55.942;37.314;2023-03-02T11:49:38;98633.09;;;0.03;49.85
44138;BME280;29800;55.942;37.314;2023-03-02T11:52:24;98632.69;;;0.06;49.94
44138;BME280;29800;55.942;37.314;2023-03-02T11:54:59;98627.28;;;0.06;49.63
44138;BME280;29800;55.942;37.314;2023-03-02T11:57:38;98624.19;;;0.15;49.56
44138;BME280;29800;55.942;37.314;2023-03-02T12:00:14;98615.09;;;0.16;49.76
44138;BME280;29800;55.942;37.314;2023-03-02T12:02:42;98621.91;;;0.12;49.55
44138;BME280;29800;55.942;37.314;2023-03-02T12:05:29;98618.59;;;0.17;50.13
44138;BME280;29800;55.942;37.314;2023-03-02T12:08:01;98610.13;;;0.13;49.65
44138;BME280;29800;55.942;37.314;2023-03-02T12:10:33;98614.44;;;0.14;50.33
44138;BME280;29800;55.942;37.314;2023-03-02T12:13:17;98606.56;;;0.20;50.35
44138;BME280;29800;55.942;37.314;2023-03-02T12:15:46;98618.38;;;0.18;50.31
44138;BME280;29800;55.942;37.314;2023-03-02T12:21:11;98603.28;;;0.11;50.21
44138;BME280;29800;55.942;37.314;2023-03-02T12:31:55;98583.63;;;0.10;50.36
44138;BME280;29800;55.942;37.314;2023-03-02T12:34:50;98571.81;;;0.05;50.25
44138;BME280;29800;55.942;37.314;2023-03-02T12:37:30;98560.25;;;0.04;50.41
44138;BME280;29800;55.942;37.314;2023-03-02T12:45:17;98561.72;;;-0.27;50.86
44138;BME280;29800;55.942;37.314;2023-03-02T12:48:05;98550.56;;;-0.24;51.11
44138;BME280;29800;55.942;37.314;2023-03-02T12:50:40;98542.09;;;-0.34;51.24
44138;BME280;29800;55.942;37.314;2023-03-02T12:53:17;98540.44;;;-0.35;51.26
44138;BME280;29800;55.942;37.314;2023-03-02T12:55:43;98521.22;;;-0.52;51.60
44138;BME280;29800;55.942;37.314;2023-03-02T12:58:26;98511.28;;;-0.51;51.69
44138;BME280;29800;55.942;37.314;2023-03-02T13:00:56;98511.69;;;-0.41;51.49
44138;BME280;29800;55.942;37.314;2023-03-02T13:03:25;98516.47;;;-0.57;51.71
44138;BME280;29800;55.942;37.314;2023-03-02T13:06:03;98517.69;;;-0.59;52.18
44138;BME280;29800;55.942;37.314;2023-03-02T13:08:31;98533.22;;;-0.68;52.19
44138;BME280;29800;55.942;37.314;2023-03-02T13:11:00;98513.19;;;-0.79;52.37
44138;BME280;29800;55.942;37.314;2023-03-02T13:13:46;98511.09;;;-0.77;52.54
44138;BME280;29800;55.942;37.314;2023-03-02T13:16:21;98510.47;;;-0.85;52.71
44138;BME280;29800;55.942;37.314;2023-03-02T13:19:10;98505.28;;;-0.94;52.98
44138;BME280;29800;55.942;37.314;2023-03-02T13:21:39;98491.47;;;-1.04;52.89
44138;BME280;29800;55.942;37.314;2023-03-02T13:26:55;98484.22;;;-1.10;52.76
44138;BME280;29800;55.942;37.314;2023-03-02T13:29:25;98476.34;;;-1.18;52.90
44138;BME280;29800;55.942;37.314;2023-03-02T13:31:52;98469.97;;;-1.17;53.03
44138;BME280;29800;55.942;37.314;2023-03-02T13:36:49;98461.28;;;-1.26;53.67
44138;BME280;29800;55.942;37.314;2023-03-02T13:39:21;98454.47;;;-1.28;54.06
44138;BME280;29800;55.942;37.314;2023-03-02T13:41:58;98452.81;;;-1.23;53.76
44138;BME280;29800;55.942;37.314;2023-03-02T13:44:30;98452.81;;;-1.30;53.89
44138;BME280;29800;55.942;37.314;2023-03-02T13:46:57;98442.03;;;-1.36;54.19
44138;BME280;29800;55.942;37.314;2023-03-02T13:49:32;98430.09;;;-1.34;54.04
44138;BME280;29800;55.942;37.314;2023-03-02T13:52:12;98420.38;;;-1.41;54.41
44138;BME280;29800;55.942;37.314;2023-03-02T13:54:44;98423.25;;;-1.43;54.42
44138;BME280;29800;55.942;37.314;2023-03-02T13:57:15;98414.78;;;-1.46;54.59
44138;BME280;29800;55.942;37.314;2023-03-02T13:59:43;98414.78;;;-1.53;54.49
44138;BME280;29800;55.942;37.314;2023-03-02T14:02:20;98413.97;;;-1.54;55.56
44138;BME280;29800;55.942;37.314;2023-03-02T14:04:47;98408.59;;;-1.54;55.00
44138;BME280;29800;55.942;37.314;2023-03-02T14:07:13;98413.16;;;-1.48;55.16
44138;BME280;29800;55.942;37.314;2023-03-02T14:09:39;98414.78;;;-1.53;55.39
44138;BME280;29800;55.942;37.314;2023-03-02T14:12:05;98413.75;;;-1.52;55.45